Wilkerson Pass, Colorado
Current Conditions -  °F | °C
As of 1:34 PM on Friday 28 Nov 2014 (Local Time) from K4BM Reporting Station
Clear Clear  
Wind Chill: 35°   Ceiling: Unl
Heat Index: 43°   Visibility: 10mi
Dew Point: -4°   Wind: 17mph
Humidity: 14%   Direction: 270°W
Pressure: 30.17"   Gusts: 30mph
Location:  39.04°N, 105.53°W
Report Text: K4BM 282034Z AUTO 27015G26KT 10SM CLR 06/M20 A3017 RMK AO2
Loading
Personal Weather Stations






























Interactive Weather Map New forecast layout! Learn more

10-Day Weather Forecast

Advertisements
Track Severe Weather on mobile